Time;durP1;ratioP1;P1;durP2;ratioP2;P2;SDS_P1;SDS_P2;PMS_P1;PMS_P2;Temp;Humidity;BMP_temperature;BMP_pressure;BME280_temperature;BME280_humidity;BME280_pressure;Samples;Min_cycle;Max_cycle;Signal;HPM_P1;HPM_P2
2022/05/07 00:20:46;;;;;;;29.97;27.07;;;;;;;13.00;100.00;99863.78;5715540;24;20190;-90
2022/05/07 00:23:15;;;;;;;30.83;27.83;;;;;;;13.02;100.00;99869.75;4809919;29;20187;-91
2022/05/07 00:26:12;;;;;;;30.93;27.83;;;;;;;13.00;100.00;99871.03;4952235;24;20777;-92
2022/05/07 00:28:40;;;;;;;31.03;27.93;;;;;;;12.99;100.00;99872.06;4792260;29;20211;-92
2022/05/07 00:31:06;;;;;;;30.53;27.63;;;;;;;12.99;100.00;99875.59;4792446;29;20265;-91
2022/05/07 00:33:33;;;;;;;29.47;26.67;;;;;;;12.98;100.00;99873.94;4783983;29;20207;-92
2022/05/07 00:36:01;;;;;;;29.63;26.83;;;;;;;12.98;100.00;99873.94;4780667;29;20200;-94
2022/05/07 00:38:28;;;;;;;28.17;25.53;;;;;;;12.97;100.00;99877.69;4777988;29;20273;-93
2022/05/07 00:40:55;;;;;;;27.00;24.47;;;;;;;12.98;100.00;99870.44;4762861;29;20296;-93
2022/05/07 00:43:22;;;;;;;27.37;24.80;;;;;;;12.92;100.00;99874.88;4777792;29;20200;-92
2022/05/07 00:45:50;;;;;;;27.23;24.73;;;;;;;12.91;100.00;99875.09;4792870;29;20230;-93
2022/05/07 00:48:17;;;;;;;24.47;22.33;;;;;;;12.94;100.00;99871.94;4777155;29;20248;-93
2022/05/07 00:53:46;;;;;;;25.07;22.87;;;;;;;12.93;100.00;99889.13;4854878;24;20239;-93
2022/05/07 00:56:13;;;;;;;23.27;21.23;;;;;;;12.94;100.00;99891.59;4824549;29;20204;-93
2022/05/07 00:58:40;;;;;;;23.33;21.13;;;;;;;12.96;100.00;99891.38;4824412;29;20187;-94
2022/05/07 01:01:07;;;;;;;23.60;21.47;;;;;;;12.96;100.00;99886.00;4809046;29;20259;-93
2022/05/07 01:03:35;;;;;;;22.80;20.80;;;;;;;12.97;100.00;99890.31;4808850;29;20633;-93
2022/05/07 01:06:02;;;;;;;21.60;19.60;;;;;;;12.96;100.00;99875.22;4794049;29;20233;-94
2022/05/07 01:08:31;;;;;;;21.60;19.73;;;;;;;12.99;100.00;99859.44;4779233;29;20211;-93
2022/05/07 02:32:21;;;;;;;12.40;11.40;;;;;;;12.41;100.00;99848.44;5809604;24;20311;-88
2022/05/07 02:34:49;;;;;;;12.50;11.50;;;;;;;12.40;100.00;99848.69;5113346;24;20267;-90
2022/05/07 02:40:20;;;;;;;13.17;12.07;;;;;;;12.40;100.00;99843.31;5471663;24;20283;-91
2022/05/07 02:42:49;;;;;;;12.90;11.90;;;;;;;12.40;100.00;99838.78;4809121;29;20253;-91
2022/05/07 02:45:35;;;;;;;13.43;12.23;;;;;;;12.44;100.00;99844.50;4950045;24;20356;-92
2022/05/07 02:48:05;;;;;;;14.10;12.97;;;;;;;12.45;100.00;99841.59;4827272;29;20274;-91
2022/05/07 02:50:32;;;;;;;13.57;12.47;;;;;;;12.44;100.00;99847.19;4811728;29;20199;-91
2022/05/07 02:55:58;;;;;;;13.50;12.33;;;;;;;12.40;100.00;99832.56;4955241;24;20243;-91
2022/05/07 03:01:35;;;;;;;13.17;12.00;;;;;;;12.44;100.00;99839.13;4976012;24;20250;-91
2022/05/07 03:04:03;;;;;;;13.17;11.90;;;;;;;12.39;100.00;99839.00;4828300;29;20239;-92
2022/05/07 03:09:43;;;;;;;13.43;12.33;;;;;;;12.38;100.00;99840.03;5099783;24;20256;-92
2022/05/07 03:12:14;;;;;;;13.80;12.60;;;;;;;12.39;100.00;99842.50;4811121;29;20227;-91
2022/05/07 03:14:45;;;;;;;12.67;11.57;;;;;;;12.38;100.00;99842.72;4782788;29;20197;-91
2022/05/07 03:26:02;;;;;;;13.10;12.03;;;;;;;12.36;100.00;99848.34;4996215;24;20236;-90
2022/05/07 03:28:30;;;;;;;13.70;12.60;;;;;;;12.34;100.00;99850.41;4813025;29;20212;-92
2022/05/07 03:30:58;;;;;;;13.30;12.20;;;;;;;12.33;100.00;99854.13;4810995;29;20226;-91
2022/05/07 03:33:25;;;;;;;13.33;12.23;;;;;;;12.32;100.00;99857.88;4795963;29;20287;-93
2022/05/07 03:35:54;;;;;;;14.07;12.87;;;;;;;12.34;100.00;99856.63;4810671;29;20301;-89
2022/05/07 03:38:22;;;;;;;12.97;11.97;;;;;;;12.38;100.00;99853.47;4795721;29;20212;-92
2022/05/07 03:41:23;;;;;;;12.67;11.63;;;;;;;12.41;100.00;99850.34;4933825;24;20250;-90
2022/05/07 03:43:52;;;;;;;13.37;12.23;;;;;;;12.40;100.00;99846.00;4796057;29;20213;-90
2022/05/07 03:46:21;;;;;;;13.50;12.43;;;;;;;12.40;100.00;99852.22;4810547;29;20338;-91
2022/05/07 03:55:16;;;;;;;13.10;12.10;;;;;;;12.52;100.00;99846.88;5020104;24;20260;-90
2022/05/07 03:57:46;;;;;;;13.17;12.17;;;;;;;12.53;100.00;99857.41;4792759;29;20672;-91
2022/05/07 04:00:14;;;;;;;13.40;12.30;;;;;;;12.58;100.00;99848.66;4792373;29;20203;-91
2022/05/07 04:02:45;;;;;;;13.60;12.57;;;;;;;12.61;100.00;99850.88;4792317;29;20208;-91
2022/05/07 04:05:31;;;;;;;14.20;12.90;;;;;;;12.66;100.00;99851.84;4876181;24;20231;-92
2022/05/07 04:08:08;;;;;;;13.90;12.70;;;;;;;12.66;100.00;99854.53;4796582;29;20207;-91
2022/05/07 04:10:35;;;;;;;13.63;12.43;;;;;;;12.66;100.00;99849.16;4795834;29;20200;-92
2022/05/07 04:13:04;;;;;;;14.27;13.07;;;;;;;12.68;100.00;99855.16;4795155;29;20305;-92
2022/05/07 04:15:31;;;;;;;13.83;12.73;;;;;;;12.72;100.00;99855.50;4809861;29;20631;-92
2022/05/07 04:18:02;;;;;;;14.83;13.63;;;;;;;12.71;100.00;99857.38;4795419;29;20227;-92
2022/05/07 04:20:30;;;;;;;15.43;14.10;;;;;;;12.74;100.00;99864.16;4794974;29;20205;-92
2022/05/07 04:23:17;;;;;;;15.10;13.80;;;;;;;12.77;100.00;99855.66;4907517;24;20255;-91
2022/05/07 04:25:46;;;;;;;15.03;13.63;;;;;;;12.88;100.00;99851.38;4806346;29;20267;-90
2022/05/07 04:28:18;;;;;;;15.70;14.30;;;;;;;12.93;100.00;99854.16;4789060;29;20230;-91
2022/05/07 04:30:47;;;;;;;16.30;14.73;;;;;;;12.96;100.00;99849.16;4808013;29;20222;-92
2022/05/07 04:33:19;;;;;;;16.47;14.97;;;;;;;13.01;100.00;99851.16;4789231;29;20287;-90
2022/05/07 04:35:49;;;;;;;16.33;14.93;;;;;;;13.06;100.00;99854.00;4792711;29;20204;-92
2022/05/07 04:38:20;;;;;;;16.70;15.30;;;;;;;13.07;100.00;99852.91;4776156;29;20221;-90
2022/05/07 04:40:47;;;;;;;18.23;16.53;;;;;;;13.14;100.00;99859.06;4796208;29;20206;-90
2022/05/07 04:43:33;;;;;;;17.43;16.00;;;;;;;13.18;100.00;99854.84;4950395;24;20244;-92
2022/05/07 04:46:00;;;;;;;17.63;16.10;;;;;;;13.23;100.00;99863.06;4773802;30;20325;-92
2022/05/07 04:48:28;;;;;;;18.57;16.97;;;;;;;13.23;100.00;99849.59;4788442;30;20202;-92
2022/05/07 04:50:56;;;;;;;18.73;17.13;;;;;;;13.31;100.00;99873.47;4788518;30;20298;-90
2022/05/07 04:53:44;;;;;;;18.67;17.07;;;;;;;13.37;100.00;99863.66;4931974;24;20260;-92
2022/05/07 04:56:21;;;;;;;19.97;18.20;;;;;;;13.50;100.00;99869.66;4776842;29;20202;-93
2022/05/07 04:58:58;;;;;;;20.00;18.30;;;;;;;13.58;100.00;99866.59;4793272;29;20243;-91
2022/05/07 05:01:33;;;;;;;19.90;18.10;;;;;;;13.64;100.00;99870.22;4791283;29;20278;-92
2022/05/07 05:04:02;;;;;;;20.60;18.77;;;;;;;13.74;100.00;99867.78;4791867;29;20744;-92
2022/05/07 05:06:32;;;;;;;19.80;18.03;;;;;;;13.90;100.00;99867.09;4791055;29;20742;-93
2022/05/07 05:09:16;;;;;;;21.00;19.20;;;;;;;14.02;100.00;99875.97;4778467;29;20209;-93
2022/05/07 05:11:50;;;;;;;21.60;19.70;;;;;;;14.00;100.00;99885.31;4791444;29;20205;-92
2022/05/07 05:20:42;;;;;;;25.80;23.30;;;;;;;14.25;100.00;99879.69;4930996;24;20660;-91
2022/05/07 05:29:32;;;;;;;28.57;25.83;;;;;;;14.40;100.00;99891.66;5198774;24;20295;-89
2022/05/07 05:32:32;;;;;;;28.70;25.90;;;;;;;14.39;100.00;99895.38;4984118;24;20251;-89
2022/05/07 05:35:03;;;;;;;30.27;27.37;;;;;;;14.40;100.00;99883.56;4809250;29;20308;-89
2022/05/07 05:37:50;;;;;;;32.00;28.90;;;;;;;14.43;100.00;99891.16;4836136;24;20242;-90
2022/05/07 05:43:23;;;;;;;33.50;30.20;;;;;;;14.30;100.00;99890.56;5501508;24;20608;-87
2022/05/07 05:45:51;;;;;;;36.70;32.87;;;;;;;14.38;100.00;99901.00;4779592;29;20219;-91
2022/05/07 05:48:18;;;;;;;35.80;32.20;;;;;;;14.38;100.00;99901.81;4793828;29;20200;-89
2022/05/07 05:53:57;;;;;;;38.47;34.57;;;;;;;14.14;100.00;99915.56;5220297;24;20325;-87
2022/05/07 06:02:26;;;;;;;39.93;35.83;;;;;;;14.10;100.00;99917.88;5821152;24;20201;-89
2022/05/07 06:04:56;;;;;;;39.27;35.17;;;;;;;14.05;100.00;99913.19;4797999;29;20227;-88
2022/05/07 06:07:26;;;;;;;40.50;36.37;;;;;;;14.00;100.00;99902.31;4798815;29;20196;-90
2022/05/07 06:09:57;;;;;;;41.43;37.17;;;;;;;14.05;100.00;99907.81;4793989;29;20261;-90
2022/05/07 06:12:25;;;;;;;41.10;36.87;;;;;;;14.00;100.00;99912.25;4809781;29;20224;-88
2022/05/07 06:14:54;;;;;;;42.17;37.60;;;;;;;14.10;100.00;99912.50;4794437;29;20201;-90
2022/05/07 06:17:23;;;;;;;41.00;36.63;;;;;;;14.29;100.00;99897.84;4764963;29;20235;-90
2022/05/07 06:19:52;;;;;;;40.53;36.23;;;;;;;14.34;100.00;99897.94;4779604;29;20609;-89
2022/05/07 06:22:19;;;;;;;39.17;35.03;;;;;;;14.51;100.00;99898.88;4779108;29;20208;-91
2022/05/07 06:27:50;;;;;;;40.17;35.90;;;;;;;14.75;100.00;99906.88;4793282;29;20236;-90
2022/05/07 06:30:23;;;;;;;37.43;33.57;;;;;;;14.81;100.00;99903.22;4796114;29;20204;-91
2022/05/07 06:32:54;;;;;;;38.10;34.40;;;;;;;14.94;100.00;99895.66;4782718;29;20261;-92
2022/05/07 06:35:27;;;;;;;37.17;33.47;;;;;;;15.02;100.00;99893.66;4797424;29;20235;-91
2022/05/07 06:38:03;;;;;;;37.30;33.47;;;;;;;15.06;100.00;99889.41;4784035;29;20303;-90
2022/05/07 06:40:30;;;;;;;36.27;32.57;;;;;;;14.85;100.00;99893.59;4781788;29;20269;-91
2022/05/07 06:42:57;;;;;;;36.67;33.00;;;;;;;14.73;100.00;99888.25;4796331;29;20199;-91
2022/05/07 06:45:44;;;;;;;37.03;33.30;;;;;;;14.73;100.00;99887.44;4792228;29;20235;-91
2022/05/07 06:48:13;;;;;;;35.17;31.50;;;;;;;14.77;100.00;99885.91;4781935;29;20201;-91
2022/05/07 06:50:40;;;;;;;38.50;34.60;;;;;;;14.75;100.00;99888.81;4781915;29;20257;-90
2022/05/07 06:53:08;;;;;;;37.03;33.43;;;;;;;14.70;100.00;99887.91;4799853;29;20226;-90
2022/05/07 06:55:54;;;;;;;35.80;32.17;;;;;;;14.87;100.00;99891.50;4813976;29;20202;-91
2022/05/07 07:01:34;;;;;;;35.60;32.00;;;;;;;15.24;100.00;99895.41;4952778;24;20333;-88
2022/05/07 07:04:01;;;;;;;35.30;31.83;;;;;;;15.46;100.00;99892.81;4790450;30;20684;-90
2022/05/07 07:06:28;;;;;;;35.53;31.93;;;;;;;15.59;100.00;99889.81;4775127;30;20276;-90
2022/05/07 07:08:56;;;;;;;34.73;31.33;;;;;;;15.81;100.00;99906.09;4789993;30;20728;-91
2022/05/07 07:11:24;;;;;;;36.10;32.40;;;;;;;15.95;100.00;99902.00;4774888;30;20671;-91
2022/05/07 07:13:51;;;;;;;35.87;32.17;;;;;;;16.10;100.00;99902.19;4790587;29;20262;-91
2022/05/07 07:16:18;;;;;;;33.57;30.37;;;;;;;16.18;100.00;99903.66;4778095;29;20213;-90
2022/05/07 07:18:45;;;;;;;32.67;29.47;;;;;;;16.37;100.00;99905.00;4792168;29;20264;-91
2022/05/07 07:21:13;;;;;;;34.33;30.93;;;;;;;16.67;100.00;99891.88;4792905;29;20199;-88
2022/05/07 07:23:40;;;;;;;32.27;29.03;;;;;;;16.66;100.00;99892.13;4778012;29;20195;-89
2022/05/07 07:26:07;;;;;;;33.87;30.50;;;;;;;16.57;100.00;99883.59;4792425;29;20222;-89
2022/05/07 07:28:34;;;;;;;34.13;30.87;;;;;;;16.78;100.00;99884.72;4777411;29;20202;-91
2022/05/07 07:31:01;;;;;;;31.20;28.30;;;;;;;16.92;100.00;99890.53;4777758;29;20997;-91
2022/05/07 07:33:29;;;;;;;31.40;28.13;;;;;;;17.14;100.00;99891.28;4778537;29;20220;-92
2022/05/07 07:35:56;;;;;;;29.83;26.93;;;;;;;16.85;100.00;99882.59;4809585;29;20579;-89
2022/05/07 07:38:26;;;;;;;30.80;27.80;;;;;;;17.02;100.00;99888.75;4808242;29;20190;-88
2022/05/07 07:40:53;;;;;;;30.63;27.63;;;;;;;17.19;100.00;99888.66;4808399;29;20206;-89
2022/05/07 07:43:20;;;;;;;30.43;27.43;;;;;;;16.94;100.00;99882.97;4808068;29;20230;-90
2022/05/07 07:48:33;;;;;;;29.93;27.03;;;;;;;17.38;100.00;99892.63;4794441;29;20195;-88
2022/05/07 07:51:02;;;;;;;29.67;26.87;;;;;;;17.50;100.00;99895.13;4777480;29;20202;-88
2022/05/07 07:53:29;;;;;;;30.67;27.70;;;;;;;17.65;100.00;99895.28;4762382;29;20199;-88
2022/05/07 07:55:56;;;;;;;29.77;26.90;;;;;;;17.68;100.00;99900.22;4777212;29;20667;-87
2022/05/07 07:58:23;;;;;;;27.63;25.03;;;;;;;17.90;100.00;99898.19;4792203;29;20219;-87
2022/05/07 08:00:51;;;;;;;27.10;24.53;;;;;;;17.96;100.00;99899.84;4791755;29;20268;-88
2022/05/07 08:03:19;;;;;;;27.47;25.03;;;;;;;18.05;100.00;99892.06;4792033;29;20951;-87
2022/05/07 08:05:49;;;;;;;27.83;25.33;;;;;;;17.97;100.00;99901.50;4777142;29;20214;-88
2022/05/07 08:13:48;;;;;;;27.23;24.73;;;;;;;18.59;100.00;99902.66;4794324;29;20254;-90
2022/05/07 08:16:19;;;;;;;25.57;23.17;;;;;;;18.37;100.00;99910.94;4776713;29;20199;-90
2022/05/07 08:18:46;;;;;;;26.43;24.03;;;;;;;18.42;100.00;99909.09;4806461;29;20202;-88
2022/05/07 08:21:13;;;;;;;24.80;22.50;;;;;;;18.44;100.00;99916.94;4791265;29;20207;-89
2022/05/07 08:23:41;;;;;;;26.50;23.93;;;;;;;18.38;100.00;99915.31;4776777;29;20264;-88
2022/05/07 08:26:09;;;;;;;25.97;23.67;;;;;;;18.63;100.00;99915.44;4776659;29;20226;-88
2022/05/07 08:28:37;;;;;;;25.93;23.53;;;;;;;18.74;100.00;99913.59;4776468;29;20206;-87
2022/05/07 08:31:05;;;;;;;26.87;24.37;;;;;;;18.81;100.00;99923.09;4791594;29;20194;-88
2022/05/07 08:33:32;;;;;;;27.63;25.13;;;;;;;18.48;100.00;99927.00;4776465;29;20194;-90
2022/05/07 08:36:02;;;;;;;28.63;26.07;;;;;;;18.95;100.00;99923.41;4776702;29;20198;-90
2022/05/07 08:38:29;;;;;;;27.00;24.60;;;;;;;19.36;100.00;99927.84;4776521;29;20198;-90
2022/05/07 08:40:58;;;;;;;28.30;25.80;;;;;;;19.86;100.00;99933.63;4791443;29;20654;-90
2022/05/07 08:43:25;;;;;;;29.87;26.97;;;;;;;19.50;100.00;99924.66;4761559;29;20210;-90
2022/05/07 08:45:52;;;;;;;29.80;27.20;;;;;;;19.51;100.00;99926.25;4775932;29;20219;-90
2022/05/07 08:48:19;;;;;;;29.83;27.13;;;;;;;19.73;100.00;99924.13;4791299;29;20203;-90
2022/05/07 08:50:53;;;;;;;29.40;26.77;;;;;;;19.98;100.00;99934.94;4777798;29;20273;-90
2022/05/07 08:53:21;;;;;;;29.20;26.57;;;;;;;19.64;100.00;99933.91;4776240;29;20212;-90
2022/05/07 08:55:54;;;;;;;28.67;26.00;;;;;;;19.89;100.00;99936.59;4761638;29;20704;-90
2022/05/07 08:58:22;;;;;;;28.33;25.80;;;;;;;19.92;100.00;99922.47;4776674;29;20704;-89
2022/05/07 09:00:49;;;;;;;26.30;23.90;;;;;;;19.85;100.00;99929.25;4776395;29;20230;-89
2022/05/07 09:03:17;;;;;;;28.17;25.67;;;;;;;19.38;100.00;99932.19;4776004;29;20204;-90
2022/05/07 09:05:44;;;;;;;27.47;25.07;;;;;;;19.50;100.00;99927.38;4776119;29;20230;-90
2022/05/07 09:08:13;;;;;;;28.00;25.37;;;;;;;19.43;100.00;99937.63;4761646;29;20207;-89
2022/05/07 09:10:40;;;;;;;27.10;24.70;;;;;;;18.97;100.00;99923.97;4775971;29;20207;-90
2022/05/07 09:13:14;;;;;;;26.50;24.10;;;;;;;19.07;100.00;99928.63;4775934;29;20222;-90
2022/05/07 09:15:55;;;;;;;27.33;24.93;;;;;;;18.99;100.00;99934.56;4776827;29;20187;-90
2022/05/07 09:18:24;;;;;;;26.73;24.40;;;;;;;18.98;100.00;99936.47;4791183;29;20182;-90
2022/05/07 09:21:19;;;;;;;25.70;23.47;;;;;;;18.99;100.00;99940.78;4775770;29;20673;-89
2022/05/07 09:23:59;;;;;;;26.53;24.10;;;;;;;18.94;100.00;99932.66;4777594;29;20269;-89
2022/05/07 09:26:28;;;;;;;25.53;23.33;;;;;;;18.98;100.00;99925.63;4790626;29;20219;-89
2022/05/07 09:28:55;;;;;;;26.20;23.90;;;;;;;19.05;100.00;99936.19;4761711;29;20218;-89
2022/05/07 09:31:22;;;;;;;27.20;24.80;;;;;;;19.21;100.00;99938.72;4761218;29;20200;-90
2022/05/07 09:33:49;;;;;;;26.63;24.23;;;;;;;19.34;100.00;99931.94;4790764;29;20241;-90
2022/05/07 09:36:16;;;;;;;27.07;24.77;;;;;;;18.97;100.00;99937.56;4761190;29;20212;-89
2022/05/07 09:38:48;;;;;;;25.20;23.00;;;;;;;19.01;100.00;99938.66;4776104;29;20208;-89
2022/05/07 09:41:20;;;;;;;26.57;24.07;;;;;;;19.15;100.00;99934.34;4792143;29;20191;-90
2022/05/07 09:43:50;;;;;;;25.97;23.67;;;;;;;19.43;100.00;99926.78;4779361;29;20232;-89
2022/05/07 09:46:19;;;;;;;26.50;24.20;;;;;;;19.68;100.00;99935.81;4779429;29;20223;-90
2022/05/07 09:48:46;;;;;;;25.47;23.20;;;;;;;19.85;100.00;99938.22;4779194;29;20202;-89
2022/05/07 09:51:14;;;;;;;26.53;24.13;;;;;;;19.86;100.00;99939.06;4779174;29;20214;-89
2022/05/07 09:59:13;;;;;;;25.13;23.00;;;;;;;19.91;100.00;99936.34;4796392;29;20292;-89
2022/05/07 10:02:08;;;;;;;24.47;22.40;;;;;;;19.83;100.00;99932.25;4764408;29;20331;-89
2022/05/07 10:04:50;;;;;;;24.70;22.53;;;;;;;19.85;100.00;99930.06;4793886;29;20215;-89
2022/05/07 10:07:36;;;;;;;26.53;24.23;;;;;;;19.82;100.00;99929.81;4793761;29;20231;-89
2022/05/07 10:10:18;;;;;;;25.73;23.43;;;;;;;19.72;100.00;99938.78;4793841;29;20260;-89
2022/05/07 10:12:47;;;;;;;24.77;22.43;;;;;;;19.68;100.00;99929.53;4779199;29;20223;-89
2022/05/07 10:15:16;;;;;;;25.27;22.97;;;;;;;19.22;100.00;99918.59;4779003;29;20213;-90
2022/05/07 10:17:57;;;;;;;23.80;21.90;;;;;;;19.14;100.00;99921.84;4779151;29;20246;-90
2022/05/07 10:20:24;;;;;;;26.03;23.73;;;;;;;18.95;100.00;99914.44;4778680;29;20196;-90
2022/05/07 10:22:57;;;;;;;25.80;23.60;;;;;;;18.77;100.00;99911.16;4793941;29;20211;-90
2022/05/07 10:25:24;;;;;;;25.23;23.13;;;;;;;18.60;100.00;99905.13;4779014;29;20199;-90
2022/05/07 10:27:51;;;;;;;25.63;23.53;;;;;;;18.52;100.00;99904.78;4779090;29;20228;-90
2022/05/07 10:30:22;;;;;;;26.27;23.87;;;;;;;18.29;100.00;99906.03;4779081;29;20215;-91
2022/05/07 10:33:03;;;;;;;25.73;23.53;;;;;;;18.44;100.00;99906.09;4779160;29;20198;-91
2022/05/07 10:35:47;;;;;;;25.37;23.30;;;;;;;18.41;100.00;99896.59;4764376;29;20656;-91
2022/05/07 10:38:23;;;;;;;25.57;23.33;;;;;;;18.75;100.00;99896.22;4778998;29;20206;-91
2022/05/07 10:40:53;;;;;;;25.50;23.13;;;;;;;19.11;100.00;99900.66;4793575;29;20227;-90
2022/05/07 10:43:30;;;;;;;25.77;23.53;;;;;;;19.49;100.00;99898.56;4778328;29;20203;-90
2022/05/07 10:46:08;;;;;;;24.00;21.90;;;;;;;19.93;100.00;99901.50;4778274;29;20728;-90
2022/05/07 10:48:47;;;;;;;25.33;23.07;;;;;;;20.36;100.00;99892.75;4793258;29;20201;-90
2022/05/07 10:51:19;;;;;;;25.03;22.73;;;;;;;20.33;100.00;99890.59;4778498;29;20202;-90
2022/05/07 10:53:47;;;;;;;23.93;21.83;;;;;;;20.73;100.00;99889.59;4778591;29;20256;-90
2022/05/07 10:56:18;;;;;;;24.47;22.27;;;;;;;21.07;100.00;99887.78;4793288;29;20295;-90
2022/05/07 10:58:53;;;;;;;23.93;21.93;;;;;;;21.20;100.00;99891.81;4778526;29;20229;-90
2022/05/07 11:01:22;;;;;;;24.60;22.30;;;;;;;21.20;100.00;99871.91;4792767;29;20313;-90
2022/05/07 11:04:04;;;;;;;23.93;21.83;;;;;;;21.37;100.00;99877.81;4778362;29;20198;-89
2022/05/07 11:06:32;;;;;;;24.27;22.17;;;;;;;20.97;100.00;99871.50;4778097;29;20220;-91
2022/05/07 11:09:00;;;;;;;23.93;21.93;;;;;;;20.94;100.00;99865.78;4771316;29;20483;-90
2022/05/07 11:11:26;;;;;;;22.90;20.93;;;;;;;21.33;100.00;99876.72;4778072;29;20730;-90
2022/05/07 11:13:57;;;;;;;23.00;21.00;;;;;;;21.12;100.00;99867.84;4778258;29;20232;-91
2022/05/07 11:16:24;;;;;;;24.90;22.80;;;;;;;21.57;100.00;99871.34;4763133;29;20207;-91
2022/05/07 11:18:53;;;;;;;23.93;21.83;;;;;;;21.56;100.00;99864.28;4777835;29;20208;-90
2022/05/07 11:21:21;;;;;;;25.63;23.37;;;;;;;21.87;100.00;99871.91;4763141;29;20293;-90
2022/05/07 11:23:58;;;;;;;23.27;21.07;;;;;;;21.92;100.00;99876.47;4778146;29;20229;-90
2022/05/07 11:26:25;;;;;;;21.53;19.60;;;;;;;22.13;100.00;99872.47;4777808;29;20271;-90
2022/05/07 11:28:52;;;;;;;22.00;19.80;;;;;;;22.25;100.00;99859.25;4777820;29;20241;-90
2022/05/07 11:31:33;;;;;;;21.77;19.87;;;;;;;21.98;100.00;99861.69;4762875;29;20257;-90
2022/05/07 11:34:13;;;;;;;21.47;19.63;;;;;;;22.21;100.00;99862.84;4778167;29;20207;-91
2022/05/07 11:36:40;;;;;;;20.07;18.30;;;;;;;22.14;100.00;99855.00;4778400;29;20199;-91
2022/05/07 11:39:08;;;;;;;19.10;17.40;;;;;;;22.46;100.00;99853.53;4792799;29;20224;-91
2022/05/07 11:41:36;;;;;;;20.60;18.67;;;;;;;22.19;100.00;99849.47;4777900;29;20211;-89
2022/05/07 11:47:20;;;;;;;20.43;18.63;;;;;;;22.53;100.00;99835.69;4794740;29;20226;-90
2022/05/07 11:50:06;;;;;;;21.53;19.53;;;;;;;21.63;100.00;99819.22;4777841;29;20724;-91
2022/05/07 11:52:34;;;;;;;20.20;18.37;;;;;;;22.24;100.00;99813.94;4778205;29;20208;-90
2022/05/07 11:55:05;;;;;;;22.27;20.37;;;;;;;21.93;100.00;99805.28;4777680;29;20201;-90
2022/05/07 11:57:34;;;;;;;19.87;18.17;;;;;;;21.85;100.00;99811.34;4777346;29;20204;-90
2022/05/07 12:00:16;;;;;;;19.10;17.47;;;;;;;21.55;100.00;99803.50;4762441;29;20355;-91
2022/05/07 12:03:02;;;;;;;18.73;17.03;;;;;;;21.67;100.00;99805.81;4791813;29;20209;-90
2022/05/07 12:05:40;;;;;;;19.33;17.50;;;;;;;21.84;100.00;99817.09;4776957;29;20215;-90
2022/05/07 12:08:14;;;;;;;18.63;17.10;;;;;;;21.83;100.00;99823.66;4791847;29;20754;-90
2022/05/07 12:10:42;;;;;;;18.50;17.00;;;;;;;22.00;100.00;99821.31;4777341;29;20196;-89
2022/05/07 12:13:10;;;;;;;18.10;16.50;;;;;;;21.72;100.00;99828.41;4792069;29;20228;-89
2022/05/07 12:18:24;;;;;;;16.20;14.83;;;;;;;22.70;100.00;99835.22;4794365;29;20204;-89
2022/05/07 12:20:52;;;;;;;15.67;14.37;;;;;;;22.47;100.00;99831.41;4777000;29;20240;-90
2022/05/07 12:31:31;;;;;;;15.63;14.23;;;;;;;23.25;100.00;99823.44;4793780;29;20206;-89
2022/05/07 12:33:58;;;;;;;15.20;13.80;;;;;;;22.68;100.00;99819.06;4776776;29;20212;-89
2022/05/07 12:36:26;;;;;;;15.53;14.27;;;;;;;22.23;100.00;99815.03;4761913;29;20206;-89
2022/05/07 12:38:54;;;;;;;15.63;14.23;;;;;;;22.83;100.00;99810.72;4776764;29;20213;-89
2022/05/07 12:41:20;;;;;;;14.10;13.00;;;;;;;23.98;95.18;99819.97;4761805;29;20232;-90
2022/05/07 12:43:48;;;;;;;15.07;13.88;;;;;;;24.76;88.48;99810.72;4776606;29;20212;-89
2022/05/07 12:46:15;;;;;;;17.45;16.05;;;;;;;24.66;88.44;99813.66;4776298;29;20209;-88
2022/05/07 12:48:43;;;;;;;14.47;13.27;;;;;;;25.20;80.47;99807.22;4776767;29;20240;-88
2022/05/07 12:51:11;;;;;;;13.37;12.23;;;;;;;24.76;87.56;99815.38;4791077;29;20271;-88
2022/05/07 12:53:38;;;;;;;13.20;12.20;;;;;;;24.56;86.08;99806.50;4776567;29;20628;-89
2022/05/07 12:56:05;;;;;;;13.20;12.20;;;;;;;24.53;86.59;99814.50;4776559;29;20186;-89
2022/05/07 12:58:31;;;;;;;14.13;12.93;;;;;;;23.57;94.13;99808.97;4791013;29;20633;-89
2022/05/07 13:01:00;;;;;;;13.57;12.48;;;;;;;24.27;90.18;99811.50;4776126;29;20246;-88
2022/05/07 13:03:27;;;;;;;14.20;13.10;;;;;;;23.84;86.77;99810.16;4776182;29;20199;-88
2022/05/07 13:05:54;;;;;;;13.18;12.07;;;;;;;23.94;91.05;99809.94;4776525;29;20259;-89
2022/05/07 13:08:21;;;;;;;13.82;12.73;;;;;;;24.11;89.16;99815.63;4761330;29;20218;-89
2022/05/07 13:10:48;;;;;;;14.93;13.57;;;;;;;23.78;87.57;99808.63;4761475;29;20199;-89
2022/05/07 13:13:18;;;;;;;14.68;13.38;;;;;;;23.40;92.41;99805.16;4775831;29;20222;-88
2022/05/07 13:15:45;;;;;;;14.23;13.10;;;;;;;23.67;94.89;99797.03;4790320;29;20174;-89
2022/05/07 13:18:12;;;;;;;13.82;12.55;;;;;;;23.56;94.41;99793.66;4790756;29;20214;-88
2022/05/07 13:20:39;;;;;;;13.00;11.93;;;;;;;23.79;95.38;99804.78;4761374;29;20210;-89
2022/05/07 13:23:07;;;;;;;13.07;11.98;;;;;;;23.06;96.20;99798.06;4761341;29;20202;-89
2022/05/07 13:25:34;;;;;;;13.32;12.23;;;;;;;22.90;99.11;99790.41;4775999;29;20679;-89
2022/05/07 13:28:00;;;;;;;13.87;12.77;;;;;;;23.34;94.60;99792.69;4760962;29;20707;-89
2022/05/07 13:30:28;;;;;;;13.73;12.60;;;;;;;22.95;91.90;99793.06;4775892;29;20671;-89
2022/05/07 13:32:55;;;;;;;12.77;11.50;;;;;;;22.97;94.68;99788.91;4776126;29;20263;-88
2022/05/07 13:35:25;;;;;;;14.83;13.40;;;;;;;23.41;92.94;99793.94;4761517;29;20674;-89
2022/05/07 13:37:52;;;;;;;15.23;13.93;;;;;;;23.01;93.23;99792.66;4776370;29;20205;-89
2022/05/07 13:40:18;;;;;;;15.25;13.93;;;;;;;23.07;91.16;99790.69;4790887;29;20746;-89
2022/05/07 13:42:45;;;;;;;13.93;12.60;;;;;;;23.61;89.73;99792.78;4775898;29;20731;-88
2022/05/07 13:45:13;;;;;;;13.52;12.30;;;;;;;23.19;87.67;99778.16;4775651;29;20614;-89
2022/05/07 13:47:41;;;;;;;13.20;12.13;;;;;;;23.40;90.71;99786.84;4760984;29;20222;-89
2022/05/07 13:50:09;;;;;;;15.13;13.93;;;;;;;23.48;87.64;99790.81;4775873;29;20229;-89
2022/05/07 13:52:44;;;;;;;15.02;12.15;;;;;;;22.64;92.74;99774.34;4775860;29;20198;-89
2022/05/07 13:55:13;;;;;;;19.23;17.47;;;;;;;22.62;99.77;99775.78;4776058;29;20199;-88
2022/05/07 13:57:40;;;;;;;12.77;11.67;;;;;;;22.60;97.95;99776.06;4776234;29;20198;-89
2022/05/07 14:00:08;;;;;;;11.57;10.70;;;;;;;22.72;99.73;99765.53;4760746;29;20240;-89
2022/05/07 14:02:39;;;;;;;12.27;11.27;;;;;;;22.20;100.00;99758.34;4776162;29;20255;-87
2022/05/07 14:05:07;;;;;;;11.63;10.63;;;;;;;22.11;100.00;99768.28;4775661;29;20214;-89
2022/05/07 14:07:33;;;;;;;12.23;11.13;;;;;;;22.05;100.00;99761.25;4775580;29;20328;-89
2022/05/07 14:10:00;;;;;;;12.13;11.03;;;;;;;21.80;100.00;99764.22;4775959;29;20229;-89
2022/05/07 14:12:29;;;;;;;10.83;9.93;;;;;;;21.65;100.00;99765.19;4790295;29;20230;-89
2022/05/07 14:14:56;;;;;;;11.70;10.70;;;;;;;21.50;100.00;99751.75;4790408;29;20193;-89
2022/05/07 14:17:23;;;;;;;11.43;10.53;;;;;;;21.48;100.00;99756.66;4775367;29;20209;-89
2022/05/07 14:19:52;;;;;;;11.47;10.57;;;;;;;21.40;100.00;99747.22;4775568;29;20213;-89
2022/05/07 14:22:19;;;;;;;11.20;10.30;;;;;;;21.17;100.00;99745.25;4775669;29;20256;-89
2022/05/07 14:24:46;;;;;;;11.57;10.67;;;;;;;21.33;100.00;99743.19;4775609;29;20196;-89
2022/05/07 14:27:30;;;;;;;11.43;10.63;;;;;;;21.31;100.00;99739.94;4778373;29;20218;-89
2022/05/07 14:29:57;;;;;;;12.03;11.03;;;;;;;21.40;100.00;99733.59;4778911;29;20207;-90
2022/05/07 14:32:24;;;;;;;11.30;10.40;;;;;;;21.49;100.00;99725.59;4779214;29;20190;-90
2022/05/07 14:34:51;;;;;;;12.37;11.27;;;;;;;21.45;100.00;99725.38;4793614;29;20280;-90